Time;durP1;ratioP1;P1;durP2;ratioP2;P2;SDS_P1;SDS_P2;PMS_P1;PMS_P2;Temp;Humidity;BMP_temperature;BMP_pressure;BME280_temperature;BME280_humidity;BME280_pressure;Samples;Min_cycle;Max_cycle;Signal;HPM_P1;HPM_P2
2023/05/25 00:01:25;;;;;;;14.73;9.57;;;11.00;99.90;;;10.46;76.23;101869.41;5016210;28;20343;-73
2023/05/25 00:03:59;;;;;;;13.10;8.67;;;10.90;99.90;;;10.42;74.74;101868.81;5016177;28;20286;-73
2023/05/25 00:06:36;;;;;;;18.70;9.20;;;10.90;99.90;;;10.26;76.13;101876.47;5016180;28;20188;-73
2023/05/25 00:09:09;;;;;;;16.17;8.90;;;10.70;99.90;;;10.23;75.17;101874.06;5016281;28;20191;-73
2023/05/25 00:11:42;;;;;;;13.70;9.03;;;10.70;99.90;;;10.18;76.16;101871.75;5015920;28;20728;-73
2023/05/25 00:14:15;;;;;;;19.87;9.50;;;10.50;99.90;;;10.30;75.34;101875.25;5015854;28;20239;-73
2023/05/25 00:16:50;;;;;;;16.57;9.73;;;10.80;99.90;;;10.33;76.36;101879.47;5016102;28;20188;-73
2023/05/25 00:19:24;;;;;;;12.60;8.50;;;10.80;99.90;;;10.40;75.48;101876.16;5015977;28;20225;-73
2023/05/25 00:22:01;;;;;;;14.87;8.83;;;10.90;99.90;;;10.35;74.78;101878.34;5015845;28;20231;-73
2023/05/25 00:24:35;;;;;;;14.97;10.40;;;10.80;99.90;;;10.20;75.62;101874.31;5015962;28;20191;-73
2023/05/25 00:27:08;;;;;;;15.20;9.70;;;10.60;99.90;;;10.12;76.02;101869.59;5016014;28;20231;-73
2023/05/25 00:29:42;;;;;;;14.93;9.47;;;10.60;99.90;;;10.18;76.47;101876.25;5015807;28;20195;-73
2023/05/25 00:32:15;;;;;;;18.67;10.30;;;10.70;99.90;;;10.18;76.71;101870.91;5015665;28;20318;-73
2023/05/25 00:34:48;;;;;;;14.60;9.53;;;10.60;99.90;;;10.08;76.14;101864.59;5014764;28;20219;-73
2023/05/25 00:37:22;;;;;;;14.83;8.93;;;10.60;99.90;;;10.14;75.62;101873.00;5015483;28;20546;-73
2023/05/25 00:39:55;;;;;;;15.20;9.30;;;10.60;99.90;;;10.11;76.20;101870.56;5015660;28;20274;-73
2023/05/25 00:42:30;;;;;;;19.97;10.07;;;10.60;99.90;;;10.06;76.00;101875.47;5015114;28;20746;-73
2023/05/25 00:45:04;;;;;;;16.17;10.27;;;10.60;99.90;;;10.11;75.86;101875.91;5016175;28;20285;-73
2023/05/25 00:47:40;;;;;;;13.70;8.97;;;10.60;99.90;;;10.09;75.91;101877.88;5015524;28;20253;-73
2023/05/25 00:50:22;;;;;;;15.57;9.23;;;10.60;99.90;;;10.14;75.49;101880.16;5015464;28;20223;-73
2023/05/25 00:52:56;;;;;;;18.43;9.93;;;10.70;99.90;;;10.08;75.67;101878.00;5015438;28;20278;-73
2023/05/25 00:55:33;;;;;;;17.50;8.87;;;10.60;99.90;;;10.09;75.73;101879.69;5015372;28;20283;-73
2023/05/25 00:58:11;;;;;;;13.67;9.70;;;10.60;99.90;;;10.06;76.46;101878.13;5015011;28;20720;-73
2023/05/25 01:00:48;;;;;;;14.20;9.50;;;10.60;99.90;;;9.91;75.58;101881.22;5015205;28;20231;-73
2023/05/25 01:03:26;;;;;;;20.43;10.27;;;10.40;99.90;;;9.81;76.59;101878.47;5015153;28;20303;-74
2023/05/25 01:06:03;;;;;;;16.40;10.23;;;10.30;99.90;;;9.79;76.69;101875.09;5015201;28;20246;-74
2023/05/25 01:08:40;;;;;;;17.97;10.20;;;10.30;99.90;;;9.83;76.69;101875.69;5015200;28;20237;-74
2023/05/25 01:11:16;;;;;;;14.70;10.00;;;10.30;99.90;;;9.89;76.25;101880.53;5014623;28;20770;-74
2023/05/25 01:13:52;;;;;;;13.10;9.90;;;10.40;99.90;;;9.90;76.25;101887.56;5014735;28;20633;-74
2023/05/25 01:16:26;;;;;;;15.83;9.50;;;10.40;99.90;;;9.86;75.55;101886.13;5014659;28;20188;-74
2023/05/25 01:19:01;;;;;;;14.30;9.40;;;10.30;99.90;;;9.84;76.33;101888.06;5014949;28;20191;-74
2023/05/25 01:21:44;;;;;;;17.10;10.37;;;10.30;99.90;;;9.75;77.24;101883.50;5014884;28;20227;-74
2023/05/25 01:24:31;;;;;;;12.80;8.90;;;10.20;99.90;;;9.66;76.12;101880.59;5014812;28;20211;-74
2023/05/25 01:27:13;;;;;;;16.83;10.13;;;10.10;99.90;;;9.65;77.88;101886.09;5015193;28;20286;-74
2023/05/25 01:29:49;;;;;;;16.17;9.70;;;10.10;99.90;;;9.58;77.47;101875.06;5014726;28;20223;-73
2023/05/25 01:32:23;;;;;;;15.03;9.07;;;10.10;99.90;;;9.57;77.25;101878.69;5014668;28;20733;-74
2023/05/25 01:35:00;;;;;;;16.00;10.20;;;10.00;99.90;;;9.60;76.99;101875.75;5014466;28;20273;-73
2023/05/25 01:37:36;;;;;;;16.40;10.43;;;10.20;99.90;;;9.56;78.45;101879.66;5015401;28;20199;-73
2023/05/25 01:40:13;;;;;;;17.43;10.60;;;10.10;99.90;;;9.56;79.17;101874.31;5014862;28;20191;-72
2023/05/25 01:42:47;;;;;;;15.77;10.13;;;10.10;99.90;;;9.52;77.91;101869.38;5014730;28;20640;-72
2023/05/25 01:45:21;;;;;;;16.33;10.40;;;10.00;99.90;;;9.39;76.50;101872.16;5013965;28;20199;-72
2023/05/25 01:48:09;;;;;;;16.40;11.03;;;9.90;99.90;;;9.43;77.22;101870.09;5014124;28;20187;-72
2023/05/25 01:50:56;;;;;;;14.03;9.20;;;9.90;99.90;;;9.44;76.98;101861.13;5014039;28;20777;-73
2023/05/25 01:53:37;;;;;;;15.10;9.83;;;9.90;99.90;;;9.37;77.59;101873.28;5014310;28;20282;-73
2023/05/25 01:56:13;;;;;;;13.27;9.43;;;9.90;99.90;;;9.31;77.06;101869.28;5014376;28;20275;-73
2023/05/25 01:58:51;;;;;;;14.37;9.83;;;9.80;99.90;;;9.30;76.48;101872.94;5013940;28;20618;-73
2023/05/25 02:01:26;;;;;;;19.00;10.80;;;9.90;99.90;;;9.25;78.28;101875.09;5013816;28;20786;-73
2023/05/25 02:04:01;;;;;;;17.50;10.60;;;9.80;99.90;;;9.25;78.71;101866.25;5014092;28;20211;-73
2023/05/25 02:06:38;;;;;;;18.27;10.43;;;9.80;99.90;;;9.23;77.21;101871.72;5014703;28;20195;-73
2023/05/25 02:09:11;;;;;;;16.33;9.77;;;9.80;99.90;;;9.11;77.01;101878.03;5014183;28;20227;-73
2023/05/25 02:11:44;;;;;;;12.60;9.50;;;9.60;99.90;;;9.09;76.03;101874.66;5013717;28;20774;-73
2023/05/25 02:14:18;;;;;;;14.80;10.70;;;9.60;99.90;;;9.09;77.20;101872.84;5013998;28;20273;-73
2023/05/25 02:16:52;;;;;;;18.00;10.57;;;9.60;99.90;;;9.05;76.87;101874.06;5013997;28;20275;-73
2023/05/25 02:19:25;;;;;;;15.77;10.07;;;9.50;99.90;;;9.04;76.45;101882.19;5014060;28;20631;-73
2023/05/25 02:21:59;;;;;;;18.40;9.97;;;9.60;99.90;;;9.11;76.72;101880.72;5013958;28;20318;-73
2023/05/25 02:24:33;;;;;;;15.77;9.63;;;9.60;99.90;;;9.07;76.11;101877.47;5013821;28;20311;-73
2023/05/25 02:27:07;;;;;;;13.53;9.83;;;9.60;99.90;;;9.07;76.60;101876.63;5013518;28;20611;-73
2023/05/25 02:29:41;;;;;;;16.60;10.97;;;9.60;99.90;;;9.11;76.63;101880.72;5013845;28;20195;-73
2023/05/25 02:32:14;;;;;;;16.67;10.40;;;10.80;99.90;;;9.05;76.69;101878.53;5014143;28;20230;-73
2023/05/25 02:34:48;;;;;;;16.33;10.17;;;9.60;99.90;;;9.05;76.92;101879.41;5013469;28;20215;-73
2023/05/25 02:37:22;;;;;;;15.37;10.27;;;9.60;99.90;;;8.96;76.26;101877.47;5013912;28;20221;-73
2023/05/25 02:39:55;;;;;;;15.53;10.23;;;9.60;99.90;;;8.88;77.30;101884.38;5014381;28;20231;-73
2023/05/25 02:42:28;;;;;;;14.87;9.97;;;9.30;99.90;;;8.83;76.42;101882.09;5013703;28;20330;-73
2023/05/25 02:45:02;;;;;;;17.37;10.47;;;9.40;99.90;;;8.77;77.92;101884.41;5013381;28;20579;-73
2023/05/25 02:47:35;;;;;;;20.03;11.83;;;9.30;99.90;;;8.76;78.45;101882.69;5013731;28;20214;-73
2023/05/25 02:50:10;;;;;;;15.10;11.23;;;9.30;99.90;;;8.73;78.57;101888.28;5014284;28;20227;-73
2023/05/25 02:52:44;;;;;;;18.33;10.73;;;9.30;99.90;;;8.71;77.76;101890.19;5013291;28;20227;-73
2023/05/25 02:55:18;;;;;;;14.63;10.67;;;9.30;99.90;;;8.69;79.13;101897.50;5013303;28;20183;-73
2023/05/25 02:57:51;;;;;;;17.47;11.13;;;9.20;99.90;;;8.68;78.03;101895.78;5015391;28;20202;-73
2023/05/25 03:00:25;;;;;;;18.80;13.60;;;9.20;99.90;;;8.64;81.57;101895.16;5017112;28;20598;-74
2023/05/25 03:02:58;;;;;;;18.70;12.10;;;9.20;99.90;;;8.67;80.15;101897.59;5017474;28;20287;-73
2023/05/25 03:05:34;;;;;;;16.13;12.73;;;9.20;99.90;;;8.70;79.82;101896.53;5017005;28;20246;-73
2023/05/25 03:08:08;;;;;;;19.60;12.20;;;9.30;99.90;;;8.71;79.64;101907.06;5017323;28;20199;-73
2023/05/25 03:10:41;;;;;;;20.50;13.67;;;9.30;99.90;;;8.75;79.60;101907.69;5017769;28;20246;-73
2023/05/25 03:13:14;;;;;;;19.27;12.97;;;9.30;99.90;;;8.71;79.14;101906.22;5017252;28;20235;-73
2023/05/25 03:15:47;;;;;;;19.37;12.80;;;9.30;99.90;;;8.72;80.01;101903.44;5016970;28;20648;-73
2023/05/25 03:18:21;;;;;;;19.90;13.67;;;9.30;99.90;;;8.79;80.47;101898.47;5017306;28;20227;-73
2023/05/25 03:20:54;;;;;;;19.40;13.10;;;9.40;99.90;;;8.77;80.84;101908.44;5016927;28;20314;-73
2023/05/25 03:23:27;;;;;;;18.37;13.27;;;9.40;99.90;;;8.73;81.71;101905.16;5016761;28;20278;-73
2023/05/25 03:26:01;;;;;;;20.43;14.50;;;9.30;99.90;;;8.71;81.92;101904.41;5017089;28;20198;-73
2023/05/25 03:28:34;;;;;;;24.13;14.90;;;9.20;99.90;;;8.70;81.55;101901.88;5017019;28;20242;-73
2023/05/25 03:31:08;;;;;;;21.93;14.50;;;9.30;99.90;;;8.72;82.07;101907.91;5016923;28;20227;-73
2023/05/25 03:33:41;;;;;;;21.07;14.50;;;9.30;99.90;;;8.62;82.71;101903.31;5016567;28;20584;-73
2023/05/25 03:36:17;;;;;;;20.87;14.03;;;9.20;99.90;;;8.59;83.53;101911.56;5016946;28;20227;-74
2023/05/25 03:38:50;;;;;;;22.37;14.50;;;9.20;99.90;;;8.63;83.23;101913.00;5016556;28;20633;-74
2023/05/25 03:41:24;;;;;;;23.23;14.67;;;9.20;99.90;;;8.64;83.38;101922.72;5016398;28;20642;-74
2023/05/25 03:43:57;;;;;;;21.97;15.10;;;9.30;99.90;;;8.63;84.10;101921.00;5016640;28;20215;-74
2023/05/25 03:46:31;;;;;;;23.13;14.73;;;9.20;99.90;;;8.66;83.80;101920.75;5017072;28;20191;-74
2023/05/25 03:49:05;;;;;;;21.77;14.57;;;9.30;99.90;;;8.67;83.64;101926.97;5016751;28;20198;-74
2023/05/25 03:51:38;;;;;;;25.43;15.00;;;9.30;99.90;;;8.69;83.89;101924.19;5016120;28;20682;-74
2023/05/25 03:54:12;;;;;;;22.63;15.10;;;9.30;99.90;;;8.68;83.40;101925.16;5016556;28;20188;-65
2023/05/25 03:56:45;;;;;;;21.13;14.80;;;9.30;99.90;;;8.69;83.65;101926.84;5016048;28;20559;-72
2023/05/25 03:59:19;;;;;;;24.03;15.83;;;9.30;99.90;;;8.55;84.82;101936.78;5016047;28;20192;-72
2023/05/25 04:01:52;;;;;;;22.43;15.23;;;9.20;99.90;;;8.61;85.01;101936.31;5015915;28;20647;-72
2023/05/25 04:04:26;;;;;;;22.27;14.50;;;9.20;99.90;;;8.62;84.46;101939.84;5016107;28;20207;-73
2023/05/25 04:07:00;;;;;;;22.33;14.33;;;9.20;99.90;;;8.59;85.61;101935.59;5016175;28;20196;-72
2023/05/25 04:09:34;;;;;;;23.77;14.27;;;9.20;99.90;;;8.64;85.40;101937.88;5015558;28;20645;-72
2023/05/25 04:12:09;;;;;;;24.57;15.00;;;9.20;99.90;;;8.66;84.91;101939.44;5015975;28;20231;-72
2023/05/25 04:14:43;;;;;;;21.30;14.53;;;9.30;99.90;;;8.48;85.64;101938.22;5016132;28;20290;-72
2023/05/25 04:17:17;;;;;;;27.93;15.30;;;9.20;99.90;;;8.52;86.48;101936.16;5015690;28;20279;-72
2023/05/25 04:19:51;;;;;;;20.07;15.07;;;9.10;99.90;;;8.59;85.99;101940.94;5015722;28;20187;-72
2023/05/25 04:22:25;;;;;;;24.60;15.83;;;9.30;99.90;;;8.58;86.28;101949.91;5016021;28;20231;-72
2023/05/25 04:24:58;;;;;;;26.93;15.80;;;9.20;99.90;;;8.64;85.50;101943.22;5015892;28;20302;-73
2023/05/25 04:27:31;;;;;;;26.10;15.93;;;9.30;99.90;;;8.65;85.67;101948.44;5015642;28;20223;-72
2023/05/25 04:30:05;;;;;;;24.67;15.57;;;9.30;99.90;;;8.61;86.06;101941.66;5015878;28;20612;-71
2023/05/25 04:32:39;;;;;;;23.07;15.63;;;9.20;99.90;;;8.64;85.83;101945.88;5015287;28;20786;-71
2023/05/25 04:35:14;;;;;;;24.03;15.50;;;9.30;99.90;;;8.67;85.83;101953.66;5015703;28;20270;-71
2023/05/25 04:37:48;;;;;;;26.87;15.67;;;9.30;99.90;;;8.72;85.45;101954.16;5015294;28;20191;-72
2023/05/25 04:40:21;;;;;;;19.57;15.43;;;9.40;99.90;;;8.68;86.00;101949.16;5015310;28;20707;-71
2023/05/25 04:42:55;;;;;;;24.83;16.27;;;9.30;99.90;;;8.74;85.92;101959.38;5015514;28;20286;-72
2023/05/25 04:45:30;;;;;;;24.03;15.73;;;9.40;99.90;;;8.79;85.79;101963.41;5015388;28;20242;-72
2023/05/25 04:48:04;;;;;;;24.10;16.63;;;9.40;99.90;;;8.81;86.09;101955.25;5015422;28;20199;-72
2023/05/25 04:50:38;;;;;;;24.27;16.80;;;9.50;99.90;;;8.82;85.36;101962.31;5015288;28;20187;-72
2023/05/25 04:53:12;;;;;;;27.93;16.97;;;9.40;99.90;;;8.81;85.61;101961.44;5015418;28;20192;-72
2023/05/25 04:55:45;;;;;;;23.43;15.30;;;9.50;99.90;;;8.79;86.08;101974.09;5015323;28;20610;-72
2023/05/25 04:58:19;;;;;;;26.67;17.63;;;9.40;99.90;;;8.78;86.37;101964.38;5014925;28;20239;-72
2023/05/25 05:00:53;;;;;;;26.33;16.87;;;9.50;99.90;;;8.84;86.50;101973.72;5014803;28;20775;-72
2023/05/25 05:03:26;;;;;;;22.93;16.00;;;9.50;99.90;;;8.83;86.32;101969.34;5015922;28;20192;-72
2023/05/25 05:06:00;;;;;;;23.67;16.60;;;9.50;99.90;;;8.88;86.33;101968.03;5015045;28;20218;-71
2023/05/25 05:08:33;;;;;;;24.60;17.20;;;9.60;99.90;;;8.85;86.55;101962.91;5014769;28;20227;-71
2023/05/25 05:11:06;;;;;;;24.70;16.70;;;9.50;99.90;;;8.87;86.46;101966.31;5014909;28;20314;-71
2023/05/25 05:13:39;;;;;;;20.90;15.53;;;9.50;99.90;;;8.92;86.30;101969.50;5014929;28;20282;-71
2023/05/25 05:16:13;;;;;;;23.47;15.03;;;9.60;99.90;;;8.89;86.51;101968.88;5014591;28;20630;-71
2023/05/25 05:18:46;;;;;;;24.37;16.63;;;9.60;99.90;;;8.90;85.89;101975.94;5014858;28;20226;-72
2023/05/25 05:21:19;;;;;;;18.27;14.27;;;9.60;99.90;;;8.85;85.96;101978.09;5014587;28;20231;-72
2023/05/25 05:23:56;;;;;;;28.63;16.13;;;9.50;99.90;;;8.89;86.17;101982.22;5014771;28;20301;-72
2023/05/25 05:26:29;;;;;;;23.33;15.47;;;9.50;99.90;;;8.83;86.37;101977.38;5014384;28;20280;-72
2023/05/25 05:29:16;;;;;;;24.97;15.10;;;9.50;99.90;;;8.83;86.07;101982.72;5014265;28;20555;-71
2023/05/25 05:31:50;;;;;;;23.60;15.10;;;9.60;99.90;;;8.86;85.68;101982.47;5014595;28;20635;-71
2023/05/25 05:34:24;;;;;;;22.07;14.73;;;9.50;99.90;;;8.89;85.87;101984.91;5014256;28;20305;-71
2023/05/25 05:36:58;;;;;;;21.87;15.67;;;9.50;99.90;;;8.94;85.81;101980.03;5014234;28;20230;-71
2023/05/25 05:39:32;;;;;;;23.03;15.80;;;9.60;99.90;;;8.91;86.03;101993.63;5014524;28;20195;-71
2023/05/25 05:42:06;;;;;;;19.67;14.33;;;9.60;99.90;;;8.89;85.26;101998.25;5014357;28;20313;-71
2023/05/25 05:44:40;;;;;;;23.03;14.90;;;9.60;99.90;;;8.95;85.18;102000.44;5014405;28;20195;-71
2023/05/25 05:47:13;;;;;;;25.30;15.83;;;9.60;99.90;;;8.92;85.59;102001.53;5014118;28;20198;-71
2023/05/25 05:49:47;;;;;;;23.60;15.40;;;9.60;99.90;;;8.98;85.92;102005.53;5014114;28;20234;-71
2023/05/25 05:52:20;;;;;;;21.17;15.13;;;9.60;99.90;;;8.91;86.02;102006.97;5013942;28;20266;-71
2023/05/25 05:54:53;;;;;;;23.67;16.47;;;9.60;99.90;;;8.90;85.56;102008.81;5013953;28;20661;-71
2023/05/25 05:57:28;;;;;;;25.93;16.67;;;9.60;99.90;;;9.00;85.94;102014.31;5013870;28;20640;-71
2023/05/25 06:00:02;;;;;;;25.03;15.83;;;9.70;99.90;;;8.87;85.62;102021.56;5014170;28;20188;-71
2023/05/25 06:02:36;;;;;;;22.17;15.37;;;9.60;99.90;;;8.90;85.44;102029.34;5014055;28;20269;-71
2023/05/25 06:05:14;;;;;;;22.40;15.20;;;9.60;99.90;;;8.94;86.29;102026.28;5013790;28;20684;-71
2023/05/25 06:07:48;;;;;;;21.07;14.90;;;9.60;99.90;;;8.97;85.43;102041.25;5014133;28;20231;-71
2023/05/25 06:10:22;;;;;;;21.10;14.87;;;9.70;99.90;;;8.96;85.60;102039.53;5014020;28;20191;-71
2023/05/25 06:12:56;;;;;;;23.17;15.43;;;9.70;99.90;;;9.04;85.96;102042.47;5014001;28;20241;-71
2023/05/25 06:15:29;;;;;;;19.73;14.70;;;9.70;99.90;;;9.02;86.05;102050.59;5014004;28;20194;-71
2023/05/25 06:18:02;;;;;;;21.27;15.33;;;9.70;99.90;;;9.06;86.41;102053.88;5014524;28;20282;-71
2023/05/25 06:20:36;;;;;;;23.03;16.07;;;9.70;99.90;;;9.01;86.01;102056.06;5013876;28;20204;-71
2023/05/25 06:23:12;;;;;;;23.43;16.07;;;9.70;99.90;;;9.05;86.69;102053.03;5013621;28;20196;-71
2023/05/25 06:25:46;;;;;;;21.50;14.80;;;9.70;99.90;;;9.05;86.72;102054.84;5013815;28;20242;-71
2023/05/25 06:28:20;;;;;;;30.53;17.23;;;9.70;99.90;;;9.05;86.75;102054.84;5013829;28;20198;-71
2023/05/25 06:30:54;;;;;;;21.90;16.57;;;9.70;99.90;;;9.09;86.46;102056.31;5013801;28;20318;-71
2023/05/25 06:33:27;;;;;;;27.53;16.90;;;9.80;99.90;;;9.08;86.33;102065.28;5019165;28;20246;-71
2023/05/25 06:36:01;;;;;;;25.60;16.50;;;9.80;99.90;;;9.11;86.61;102051.69;5020377;28;20187;-71
2023/05/25 06:38:34;;;;;;;21.43;15.90;;;9.80;99.90;;;9.06;86.47;102057.41;5020314;28;20196;-71
2023/05/25 06:41:08;;;;;;;28.93;17.07;;;9.70;99.90;;;9.11;86.77;102057.91;5020256;28;20268;-71
2023/05/25 06:43:42;;;;;;;28.50;17.00;;;9.80;99.90;;;9.11;86.48;102055.22;5020041;28;20259;-71
2023/05/25 06:46:16;;;;;;;23.30;15.60;;;9.80;99.90;;;9.15;86.61;102061.19;5019875;28;20423;-71
2023/05/25 06:48:50;;;;;;;28.87;18.57;;;9.90;99.90;;;9.17;86.78;102064.59;5020386;28;20199;-71
2023/05/25 06:51:26;;;;;;;27.07;17.60;;;9.90;99.90;;;9.22;86.51;102057.06;5020158;28;20265;-71
2023/05/25 06:54:00;;;;;;;26.40;17.43;;;9.90;99.90;;;9.27;86.08;102068.25;5020177;28;20191;-71
2023/05/25 06:56:33;;;;;;;29.67;16.67;;;9.90;99.90;;;9.30;86.41;102070.69;5020180;28;20275;-71
2023/05/25 06:59:06;;;;;;;31.70;18.23;;;10.00;99.90;;;9.26;85.95;102069.22;5020624;28;20282;-71
2023/05/25 07:01:39;;;;;;;28.07;17.53;;;10.00;99.90;;;9.32;86.21;102074.06;5019701;28;20318;-71
2023/05/25 07:04:13;;;;;;;23.70;17.03;;;10.00;99.90;;;9.34;86.37;102072.16;5020343;28;20218;-71
2023/05/25 07:06:47;;;;;;;26.53;16.50;;;10.00;99.90;;;9.34;86.27;102073.97;5020530;28;20231;-72
2023/05/25 07:09:21;;;;;;;24.57;16.13;;;10.00;99.90;;;9.33;86.07;102081.13;5021191;28;20264;-72
2023/05/25 07:11:54;;;;;;;27.23;16.97;;;10.00;99.90;;;9.38;85.71;102084.31;5023263;28;20231;-72
2023/05/25 07:14:28;;;;;;;24.07;16.53;;;10.10;99.90;;;9.39;86.00;102085.13;5022357;28;20196;-71
2023/05/25 07:17:01;;;;;;;24.60;16.23;;;10.10;99.90;;;9.45;85.66;102074.00;5021637;28;20559;-72
2023/05/25 07:19:34;;;;;;;23.03;16.40;;;10.10;99.90;;;9.49;85.09;102086.97;5020732;28;20226;-71
2023/05/25 07:22:08;;;;;;;30.20;17.50;;;10.20;99.90;;;9.48;85.50;102079.94;5021335;28;20318;-72
2023/05/25 07:24:42;;;;;;;22.10;15.50;;;10.20;99.90;;;9.52;84.96;102081.38;5020862;28;20195;-72
2023/05/25 07:27:15;;;;;;;22.47;12.27;;;10.20;99.90;;;9.55;84.21;102074.97;5020558;28;20215;-71
2023/05/25 07:29:49;;;;;;;23.87;15.17;;;10.30;99.90;;;9.57;84.47;102081.88;5019869;28;20606;-71
2023/05/25 07:32:22;;;;;;;24.23;15.20;;;10.30;99.90;;;9.64;85.12;102075.09;5019505;28;20651;-72
2023/05/25 07:34:56;;;;;;;18.60;12.70;;;10.40;99.90;;;9.69;84.61;102072.88;5019396;28;20222;-72
2023/05/25 07:37:29;;;;;;;22.33;12.47;;;10.40;99.90;;;9.73;84.30;102070.81;5019766;28;20221;-72
2023/05/25 07:40:02;;;;;;;21.93;13.57;;;10.40;99.90;;;9.80;84.10;102068.50;5019715;28;20286;-72
2023/05/25 07:42:36;;;;;;;20.23;13.23;;;10.50;99.90;;;9.89;84.28;102073.97;5019684;28;20226;-72
2023/05/25 07:45:12;;;;;;;21.47;12.90;;;10.60;99.90;;;9.88;84.31;102077.63;5016615;28;20282;-72
2023/05/25 07:47:46;;;;;;;21.20;13.13;;;10.50;99.90;;;9.98;84.38;102077.72;5016202;28;20645;-71
2023/05/25 07:50:19;;;;;;;19.27;11.67;;;10.70;99.90;;;10.04;83.66;102077.22;5016538;28;20191;-71
2023/05/25 07:52:53;;;;;;;22.83;11.37;;;10.70;99.90;;;10.12;83.61;102085.47;5016177;28;20287;-71
2023/05/25 07:55:26;;;;;;;18.67;10.83;;;10.80;99.90;;;10.14;83.13;102078.19;5016467;28;20199;-71
2023/05/25 07:58:00;;;;;;;17.40;12.07;;;10.80;99.90;;;10.12;82.65;102075.63;5016425;28;20219;-72
2023/05/25 08:00:33;;;;;;;16.97;12.07;;;10.80;99.90;;;10.13;83.00;102081.84;5016004;28;20634;-72
2023/05/25 08:03:07;;;;;;;20.33;10.67;;;10.80;99.90;;;10.20;82.98;102092.94;5016234;28;20211;-72
2023/05/25 08:05:42;;;;;;;21.60;10.17;;;10.90;99.90;;;10.24;82.18;102084.50;5016240;28;20201;-72
2023/05/25 08:08:16;;;;;;;16.93;10.43;;;11.00;99.90;;;10.31;82.30;102083.03;5016140;28;20613;-72
2023/05/25 08:10:50;;;;;;;15.10;10.13;;;11.00;99.90;;;10.38;82.47;102081.53;5016076;28;20318;-72
2023/05/25 08:13:23;;;;;;;17.80;10.07;;;11.10;99.90;;;10.44;82.07;102075.72;5016129;28;20544;-71
2023/05/25 08:15:56;;;;;;;16.43;9.80;;;11.20;99.90;;;10.49;81.47;102076.16;5016124;28;20283;-71
2023/05/25 08:18:30;;;;;;;17.93;10.30;;;11.20;99.90;;;10.53;81.51;102082.13;5016074;28;20192;-71
2023/05/25 08:21:03;;;;;;;16.70;9.67;;;11.20;99.90;;;10.63;81.78;102086.56;5015597;28;20716;-72
2023/05/25 08:23:41;;;;;;;17.23;10.10;;;11.30;99.90;;;10.71;81.55;102088.63;5015635;28;20664;-72
2023/05/25 08:26:14;;;;;;;15.60;8.93;;;11.40;99.90;;;10.79;81.66;102083.44;5015802;28;20199;-72
2023/05/25 08:29:07;;;;;;;14.57;8.83;;;11.50;99.90;;;10.81;80.12;102088.69;5016169;28;20200;-72
2023/05/25 08:31:42;;;;;;;14.67;8.33;;;11.50;99.90;;;10.90;81.25;102088.75;5015675;28;20314;-72
2023/05/25 08:34:15;;;;;;;16.70;9.27;;;11.60;99.90;;;10.92;80.26;102086.81;5015385;28;20246;-72
2023/05/25 08:36:49;;;;;;;18.10;9.37;;;11.60;99.90;;;10.97;80.50;102091.78;5015686;28;20271;-72
2023/05/25 08:39:22;;;;;;;14.87;9.67;;;11.60;99.90;;;11.00;79.89;102091.50;5015647;28;20195;-71
2023/05/25 08:41:56;;;;;;;16.53;9.70;;;11.70;99.90;;;10.97;78.93;102097.13;5015585;28;20314;-72
2023/05/25 08:44:31;;;;;;;13.30;8.60;;;11.70;99.90;;;11.02;78.62;102102.97;5015518;28;20298;-71
2023/05/25 08:47:12;;;;;;;19.47;8.70;;;11.70;99.90;;;11.07;78.86;102103.41;5015488;28;20310;-71
2023/05/25 08:49:48;;;;;;;18.60;9.73;;;11.70;99.90;;;11.13;79.51;102094.84;5015589;28;20288;-71
2023/05/25 08:52:29;;;;;;;15.20;10.37;;;11.80;99.90;;;11.19;80.19;102103.22;5015323;28;20231;-71
2023/05/25 08:55:09;;;;;;;14.00;9.00;;;11.90;99.90;;;11.29;79.42;102100.59;5015050;28;20301;-71
2023/05/25 08:57:55;;;;;;;16.87;9.47;;;12.00;99.90;;;11.29;79.49;102108.66;5015275;28;20191;-71
2023/05/25 09:00:36;;;;;;;20.17;10.60;;;12.00;99.90;;;11.34;80.09;102098.34;5014901;28;20633;-72
2023/05/25 09:03:16;;;;;;;15.00;8.20;;;12.00;99.90;;;11.35;79.32;102099.22;5015281;28;20198;-71
2023/05/25 09:05:50;;;;;;;14.40;9.37;;;12.00;99.90;;;11.42;79.28;102103.06;5015171;28;20199;-71
2023/05/25 09:08:25;;;;;;;12.77;8.67;;;12.10;99.90;;;11.49;78.81;102107.78;5015051;28;20306;-71
2023/05/25 09:11:01;;;;;;;15.83;8.40;;;12.20;99.90;;;11.52;79.12;102102.16;5014975;28;20358;-71
2023/05/25 09:13:34;;;;;;;12.07;8.67;;;12.20;99.90;;;11.58;79.04;102104.28;5015035;28;20226;-71
2023/05/25 09:16:09;;;;;;;11.77;8.10;;;12.30;99.90;;;11.61;78.17;102101.31;5014914;28;20250;-71
2023/05/25 09:18:43;;;;;;;19.03;9.17;;;12.30;99.90;;;11.65;77.58;102101.91;5014592;28;20191;-71
2023/05/25 09:21:16;;;;;;;15.53;8.60;;;12.30;99.90;;;11.65;77.92;102107.28;5014572;28;20662;-72
2023/05/25 09:23:52;;;;;;;16.40;8.77;;;12.30;99.90;;;11.69;77.99;102112.25;5014886;28;20192;-72
2023/05/25 09:26:26;;;;;;;15.30;8.60;;;12.30;99.90;;;11.68;77.52;102102.50;5014482;28;20664;-72
2023/05/25 09:29:00;;;;;;;15.77;8.10;;;12.00;99.90;;;11.75;77.87;102100.16;5014399;28;20207;-73
2023/05/25 09:31:37;;;;;;;13.83;8.57;;;12.40;99.90;;;11.81;78.48;102102.31;5014580;28;20226;-72
2023/05/25 09:34:15;;;;;;;14.40;7.70;;;12.50;99.90;;;11.87;77.01;102108.97;5014367;28;20219;-72
2023/05/25 09:36:48;;;;;;;20.20;8.97;;;12.50;99.90;;;11.92;75.21;102107.56;5014600;28;20278;-72
2023/05/25 09:39:25;;;;;;;14.37;8.93;;;12.60;99.90;;;11.97;75.59;102112.53;5014539;28;20188;-72
2023/05/25 09:42:01;;;;;;;13.63;8.17;;;12.60;99.90;;;12.01;76.30;102120.19;5014393;28;20266;-69
2023/05/25 09:44:34;;;;;;;14.33;8.53;;;12.70;99.90;;;12.10;76.02;102108.63;5013608;28;20620;-71
2023/05/25 09:47:09;;;;;;;14.23;8.20;;;12.70;99.90;;;12.15;75.77;102108.22;5014299;28;20281;-70
2023/05/25 09:49:46;;;;;;;16.40;8.20;;;12.80;99.90;;;12.24;76.75;102119.97;5014368;28;20306;-69
2023/05/25 09:52:19;;;;;;;14.33;8.43;;;12.90;99.90;;;12.29;76.75;102104.28;5014099;28;20314;-70
2023/05/25 09:54:55;;;;;;;18.07;8.03;;;12.90;99.90;;;12.25;76.16;102117.16;5014247;28;20196;-70
2023/05/25 09:57:29;;;;;;;14.30;7.80;;;12.90;99.90;;;12.28;76.07;102126.75;5014198;28;20218;-70
2023/05/25 10:00:04;;;;;;;14.87;8.13;;;12.90;99.90;;;12.35;75.98;102125.22;5014243;28;20281;-69
2023/05/25 10:02:37;;;;;;;14.93;7.60;;;12.90;99.90;;;12.36;74.76;102127.78;5014098;28;20265;-69
2023/05/25 10:05:12;;;;;;;15.70;7.80;;;13.00;99.90;;;12.39;75.11;102116.75;5014144;28;20215;-69
2023/05/25 10:07:47;;;;;;;16.37;8.07;;;13.00;99.90;;;12.43;74.62;102128.91;5013190;28;20215;-69
2023/05/25 10:10:23;;;;;;;14.20;7.27;;;13.10;99.90;;;12.48;74.11;102128.50;5014052;28;20226;-69
2023/05/25 10:12:59;;;;;;;16.40;7.30;;;13.10;99.90;;;12.50;74.13;102137.28;5013811;28;20278;-69
2023/05/25 10:15:35;;;;;;;14.70;7.27;;;13.10;99.90;;;12.51;73.66;102134.44;5014130;28;20215;-69
2023/05/25 10:18:13;;;;;;;14.77;7.77;;;13.10;99.90;;;12.56;74.24;102142.09;5014439;28;20540;-69
2023/05/25 10:20:52;;;;;;;12.23;7.37;;;13.20;99.90;;;12.61;74.00;102129.06;5014302;28;20230;-69
2023/05/25 10:23:28;;;;;;;11.67;7.57;;;13.20;99.90;;;12.64;72.76;102123.41;5014237;28;20195;-70
2023/05/25 10:26:06;;;;;;;13.00;7.37;;;13.20;99.90;;;12.69;72.37;102130.09;5014232;28;20191;-70
2023/05/25 10:28:47;;;;;;;12.33;7.57;;;13.30;99.90;;;12.77;73.44;102131.22;5014163;28;20215;-69
2023/05/25 10:31:26;;;;;;;13.33;7.83;;;13.40;99.90;;;12.84;73.09;102135.03;5013950;28;20318;-69
2023/05/25 10:34:02;;;;;;;11.80;7.13;;;13.40;99.90;;;12.91;72.81;102128.94;5013440;28;20217;-69
2023/05/25 10:36:39;;;;;;;11.00;6.70;;;13.50;99.90;;;12.88;71.26;102131.06;5013493;28;20277;-69
2023/05/25 10:39:14;;;;;;;10.97;6.37;;;13.50;99.80;;;12.96;70.91;102128.53;5013410;28;20194;-70
2023/05/25 10:41:49;;;;;;;12.10;6.23;;;13.50;99.50;;;13.04;71.95;102134.03;5013361;28;20778;-70